createdAt,value
2022-10-19T00:00:47.137Z,10.32
2022-10-19T00:03:13.906Z,10.07
2022-10-19T00:05:40.867Z,8.13
2022-10-19T00:08:07.844Z,7.10
2022-10-19T00:10:35.022Z,6.40
2022-10-19T00:13:01.703Z,6.78
2022-10-19T00:15:28.413Z,5.97
2022-10-19T00:17:55.962Z,5.22
2022-10-19T00:20:22.527Z,4.47
2022-10-19T00:22:50.772Z,4.68
2022-10-19T00:25:17.455Z,5.10
2022-10-19T00:27:44.547Z,5.57
2022-10-19T00:30:11.409Z,6.13
2022-10-19T00:32:38.050Z,6.05
2022-10-19T00:35:05.121Z,4.82
2022-10-19T00:37:31.742Z,4.90
2022-10-19T00:39:58.337Z,4.55
2022-10-19T00:42:25.176Z,4.57
2022-10-19T00:44:51.659Z,3.88
2022-10-19T00:47:23.412Z,4.78
2022-10-19T00:49:50.186Z,5.72
2022-10-19T00:52:21.086Z,3.85
2022-10-19T00:54:49.894Z,3.83
2022-10-19T00:57:17.273Z,4.65
2022-10-19T00:59:45.649Z,4.57
2022-10-19T01:02:12.923Z,4.78
2022-10-19T01:04:44.784Z,3.38
2022-10-19T01:07:12.437Z,4.22
2022-10-19T01:09:39.055Z,3.90
2022-10-19T01:12:25.303Z,5.22
2022-10-19T01:15:07.258Z,4.72
2022-10-19T01:18:01.108Z,3.83
2022-10-19T01:20:48.666Z,3.85
2022-10-19T01:23:27.548Z,3.70
2022-10-19T01:26:09.148Z,3.90
2022-10-19T01:29:04.316Z,3.95
2022-10-19T01:31:44.611Z,4.20
2022-10-19T01:34:19.895Z,5.20
2022-10-19T01:37:02.082Z,5.25
2022-10-19T01:39:56.987Z,6.68
2022-10-19T01:42:33.744Z,5.68
2022-10-19T01:45:11.505Z,6.53
2022-10-19T01:48:00.023Z,7.80
2022-10-19T01:50:49.358Z,8.63
2022-10-19T01:53:19.442Z,9.43
2022-10-19T01:55:50.169Z,7.93
2022-10-19T01:58:29.712Z,7.65
2022-10-19T02:00:59.722Z,7.28
2022-10-19T02:03:28.498Z,5.30
2022-10-19T02:05:56.760Z,3.80
2022-10-19T02:08:31.527Z,4.18
2022-10-19T02:10:59.619Z,4.70
2022-10-19T02:13:27.710Z,3.17
2022-10-19T02:15:59.333Z,4.13
2022-10-19T02:18:32.889Z,3.72
2022-10-19T02:21:03.352Z,3.88
2022-10-19T02:25:57.398Z,4.25
2022-10-19T02:30:51.951Z,3.88
2022-10-19T02:33:18.671Z,4.15
2022-10-19T02:35:45.796Z,4.95
2022-10-19T02:38:17.039Z,4.45
2022-10-19T02:41:02.991Z,4.57
2022-10-19T02:43:34.438Z,4.85
2022-10-19T02:46:06.078Z,4.60
2022-10-19T02:48:35.301Z,4.22
2022-10-19T02:51:02.449Z,3.10
2022-10-19T02:53:29.098Z,4.68
2022-10-19T02:55:55.725Z,4.18
2022-10-19T02:58:22.404Z,3.95
2022-10-19T03:00:49.049Z,4.13
2022-10-19T03:03:15.653Z,4.63
2022-10-19T03:05:42.255Z,4.03
2022-10-19T03:08:08.929Z,4.82
2022-10-19T03:10:35.451Z,3.92
2022-10-19T03:13:01.931Z,4.38
2022-10-19T03:15:29.884Z,4.38
2022-10-19T03:17:56.868Z,4.07
2022-10-19T03:20:23.788Z,3.70
2022-10-19T03:22:50.462Z,3.50
2022-10-19T03:25:17.221Z,4.00
2022-10-19T03:27:43.816Z,4.55
2022-10-19T03:30:10.812Z,4.18
2022-10-19T03:32:37.461Z,4.15
2022-10-19T03:35:04.331Z,5.03
2022-10-19T03:37:31.752Z,4.40
2022-10-19T03:39:58.581Z,5.75
2022-10-19T03:42:25.096Z,4.93
2022-10-19T03:44:51.667Z,4.15
2022-10-19T03:47:18.296Z,4.22
2022-10-19T03:49:44.920Z,5.07
2022-10-19T03:52:11.580Z,3.55
2022-10-19T03:54:38.351Z,3.75
2022-10-19T03:57:05.434Z,4.25
2022-10-19T03:59:32.180Z,3.17
2022-10-19T04:01:58.731Z,3.25
2022-10-19T04:04:25.461Z,2.70
2022-10-19T04:06:53.837Z,3.80
2022-10-19T04:09:22.131Z,3.28
2022-10-19T04:11:49.865Z,3.55
2022-10-19T04:14:26.931Z,4.32
2022-10-19T04:17:03.019Z,3.25
2022-10-19T04:19:30.815Z,2.80
2022-10-19T04:21:57.939Z,3.50
2022-10-19T04:24:24.463Z,3.22
2022-10-19T04:26:53.337Z,3.45
2022-10-19T04:29:23.727Z,3.70
2022-10-19T04:31:53.419Z,3.55
2022-10-19T04:34:20.391Z,4.07
2022-10-19T04:36:46.882Z,3.80
2022-10-19T04:39:13.861Z,3.63
2022-10-19T04:41:40.480Z,3.90
2022-10-19T04:44:07.360Z,3.35
2022-10-19T04:46:34.599Z,4.82
2022-10-19T04:49:01.582Z,5.35
2022-10-19T04:51:28.147Z,5.05
2022-10-19T04:53:59.348Z,4.55
2022-10-19T04:56:27.591Z,3.83
2022-10-19T04:58:56.807Z,3.90
2022-10-19T05:01:24.272Z,3.92
2022-10-19T05:03:59.062Z,3.40
2022-10-19T05:06:26.513Z,4.40
2022-10-19T05:08:53.128Z,4.78
2022-10-19T05:11:20.039Z,6.95
2022-10-19T05:13:47.793Z,4.72
2022-10-19T05:16:17.845Z,4.82
2022-10-19T05:18:47.867Z,4.80
2022-10-19T05:21:14.985Z,4.40
2022-10-19T05:23:42.130Z,5.22
2022-10-19T05:26:20.306Z,5.72
2022-10-19T05:28:57.583Z,5.95
2022-10-19T05:31:26.783Z,6.03
2022-10-19T05:33:53.973Z,5.65
2022-10-19T05:36:26.604Z,5.88
2022-10-19T05:38:55.801Z,6.30
2022-10-19T05:41:23.218Z,5.07
2022-10-19T05:43:54.846Z,6.35
2022-10-19T05:46:21.648Z,7.05
2022-10-19T05:48:48.823Z,7.32
2022-10-19T05:51:18.505Z,7.57
2022-10-19T05:53:45.615Z,8.90
2022-10-19T05:56:17.643Z,8.50
2022-10-19T05:58:45.092Z,7.97
2022-10-19T06:01:11.763Z,7.75
2022-10-19T06:03:38.381Z,7.82
2022-10-19T06:06:07.050Z,8.23
2022-10-19T06:08:34.474Z,7.88
2022-10-19T06:11:29.269Z,8.40
2022-10-19T06:13:58.292Z,6.97
2022-10-19T06:16:26.826Z,7.82
2022-10-19T06:18:54.778Z,7.45
2022-10-19T06:21:24.987Z,7.13
2022-10-19T06:23:52.715Z,7.45
2022-10-19T06:26:20.064Z,6.78
2022-10-19T06:28:48.251Z,7.38
2022-10-19T06:31:14.995Z,6.60
2022-10-19T06:33:43.185Z,6.28
2022-10-19T06:36:16.611Z,6.90
2022-10-19T06:38:44.002Z,6.57
2022-10-19T06:41:11.603Z,7.38
2022-10-19T06:43:38.240Z,6.63
2022-10-19T06:46:14.885Z,5.95
2022-10-19T06:48:41.634Z,6.40
2022-10-19T06:51:09.110Z,6.75
2022-10-19T06:53:36.517Z,6.85
2022-10-19T06:56:06.010Z,7.30
2022-10-19T06:58:39.521Z,7.05
2022-10-19T07:01:07.816Z,7.55
2022-10-19T07:03:35.559Z,4.38
2022-10-19T07:06:05.278Z,4.10
2022-10-19T07:08:32.830Z,4.00
2022-10-19T07:11:02.254Z,3.17
2022-10-19T07:13:29.623Z,3.60
2022-10-19T07:16:01.387Z,3.25
2022-10-19T07:18:28.397Z,3.03
2022-10-19T07:20:56.993Z,3.10
2022-10-19T07:23:25.170Z,2.88
2022-10-19T07:25:53.559Z,3.33
2022-10-19T07:28:21.572Z,3.80
2022-10-19T07:30:48.469Z,3.28
2022-10-19T07:33:15.389Z,3.47
2022-10-19T07:35:42.367Z,4.13
2022-10-19T07:38:09.081Z,4.00
2022-10-19T07:40:36.115Z,3.85
2022-10-19T07:43:03.095Z,4.43
2022-10-19T07:45:30.051Z,4.57
2022-10-19T07:47:56.708Z,4.68
2022-10-19T07:50:24.665Z,5.60
2022-10-19T07:52:52.291Z,5.10
2022-10-19T07:55:19.640Z,7.32
2022-10-19T07:57:49.897Z,6.30
2022-10-19T08:00:17.207Z,6.88
2022-10-19T08:02:59.891Z,7.30
2022-10-19T08:05:33.133Z,8.38
2022-10-19T08:07:59.644Z,9.32
2022-10-19T08:10:26.311Z,9.80
2022-10-19T08:12:53.206Z,8.85
2022-10-19T08:15:19.758Z,8.13
2022-10-19T08:17:46.474Z,8.65
2022-10-19T08:20:15.579Z,7.00
2022-10-19T08:22:45.236Z,7.63
2022-10-19T08:25:13.339Z,7.80
2022-10-19T08:27:39.918Z,7.78
2022-10-19T08:30:07.351Z,7.90
2022-10-19T08:32:34.235Z,7.47
2022-10-19T08:35:01.029Z,6.72
2022-10-19T08:37:43.801Z,6.70
2022-10-19T08:40:22.692Z,6.85
2022-10-19T08:43:13.472Z,7.38
2022-10-19T08:46:09.766Z,6.40
2022-10-19T08:48:39.179Z,7.80
2022-10-19T08:51:06.365Z,7.47
2022-10-19T08:53:44.448Z,5.95
2022-10-19T08:56:26.829Z,7.20
2022-10-19T08:59:19.917Z,6.70
2022-10-19T09:02:00.046Z,6.60
2022-10-19T09:04:37.446Z,7.60
2022-10-19T09:07:16.139Z,6.28
2022-10-19T09:12:19.455Z,6.05
2022-10-19T09:14:59.465Z,6.65
2022-10-19T09:17:26.607Z,6.18
2022-10-19T09:19:53.586Z,7.28
2022-10-19T09:22:22.617Z,6.68
2022-10-19T09:24:50.964Z,6.55
2022-10-19T09:27:26.789Z,7.47
2022-10-19T09:30:04.846Z,6.95
2022-10-19T09:32:35.372Z,6.75
2022-10-19T09:35:07.159Z,7.15
2022-10-19T09:37:40.257Z,7.15
2022-10-19T09:40:13.462Z,7.22
2022-10-19T09:42:40.039Z,7.03
2022-10-19T09:45:36.263Z,7.88
2022-10-19T09:48:12.192Z,8.27
2022-10-19T09:50:43.255Z,8.15
2022-10-19T09:53:20.057Z,9.15
2022-10-19T09:56:23.137Z,8.52
2022-10-19T09:58:52.529Z,7.95
2022-10-19T10:01:43.524Z,8.18
2022-10-19T10:04:21.427Z,7.97
2022-10-19T10:06:49.262Z,9.00
2022-10-19T10:09:18.252Z,7.50
2022-10-19T10:11:49.686Z,8.40
2022-10-19T10:14:36.917Z,7.85
2022-10-19T10:17:08.174Z,9.07
2022-10-19T10:19:50.934Z,8.50
2022-10-19T10:22:32.518Z,8.70
2022-10-19T10:24:59.587Z,8.43
2022-10-19T10:27:33.268Z,7.95
2022-10-19T10:30:07.576Z,8.73
2022-10-19T10:32:40.133Z,9.13
2022-10-19T10:35:18.974Z,8.88
2022-10-19T10:37:47.589Z,8.00
2022-10-19T10:40:28.000Z,9.68
2022-10-19T10:45:29.392Z,8.88
2022-10-19T10:47:57.765Z,9.23
2022-10-19T10:50:31.620Z,10.38
2022-10-19T10:53:07.253Z,10.07
2022-10-19T10:55:34.433Z,11.13
2022-10-19T10:58:14.037Z,10.65
2022-10-19T11:00:41.051Z,9.60
2022-10-19T11:03:37.449Z,10.00
2022-10-19T11:06:04.231Z,10.13
2022-10-19T11:08:47.941Z,10.77
2022-10-19T11:11:27.558Z,10.57
2022-10-19T11:14:01.359Z,10.10
2022-10-19T11:16:40.147Z,9.15
2022-10-19T11:19:20.597Z,9.60
2022-10-19T11:24:48.676Z,10.57
2022-10-19T11:27:37.182Z,8.85
2022-10-19T11:30:24.292Z,10.27
2022-10-19T11:33:06.978Z,10.15
2022-10-19T11:35:54.179Z,10.30
2022-10-19T11:38:30.473Z,9.52
2022-10-19T11:41:19.276Z,10.57
2022-10-19T11:44:04.367Z,10.55
2022-10-19T11:46:56.121Z,9.10
2022-10-19T11:49:31.794Z,10.15
2022-10-19T11:52:09.909Z,8.70
2022-10-19T11:54:48.442Z,8.65
2022-10-19T11:57:26.084Z,9.45
2022-10-19T12:00:37.533Z,9.13
2022-10-19T12:03:07.171Z,8.25
2022-10-19T12:05:59.550Z,9.02
2022-10-19T12:08:44.942Z,9.30
2022-10-19T12:11:27.585Z,8.55
2022-10-19T12:16:37.994Z,9.27
2022-10-19T12:19:06.776Z,9.30
2022-10-19T12:21:39.583Z,8.73
2022-10-19T12:24:28.635Z,9.27
2022-10-19T12:26:55.968Z,9.80
2022-10-19T12:29:35.933Z,9.13
2022-10-19T12:32:04.729Z,8.23
2022-10-19T12:34:46.397Z,7.70
2022-10-19T12:37:23.785Z,7.70
2022-10-19T12:39:56.390Z,8.15
2022-10-19T12:42:56.790Z,8.32
2022-10-19T12:48:08.627Z,7.18
2022-10-19T12:50:50.575Z,8.38
2022-10-19T12:53:24.347Z,7.28
2022-10-19T12:56:09.056Z,7.07
2022-10-19T12:58:44.965Z,7.03
2022-10-19T13:01:26.204Z,7.57
2022-10-19T13:04:15.245Z,6.82
2022-10-19T13:06:45.229Z,6.90
2022-10-19T13:09:30.472Z,7.32
2022-10-19T13:12:21.670Z,7.40
2022-10-19T13:15:03.983Z,7.80
2022-10-19T13:17:37.046Z,7.45
2022-10-19T13:20:15.743Z,7.00
2022-10-19T13:22:47.267Z,6.60
2022-10-19T13:25:19.741Z,6.85
2022-10-19T13:27:50.824Z,6.22
2022-10-19T13:30:35.514Z,6.50
2022-10-19T13:33:31.267Z,7.20
2022-10-19T13:36:00.959Z,6.05
2022-10-19T13:38:27.677Z,7.15
2022-10-19T13:41:09.934Z,5.88
2022-10-19T13:43:51.351Z,5.28
2022-10-19T13:46:34.385Z,6.22
2022-10-19T13:49:03.859Z,6.03
2022-10-19T13:51:49.118Z,6.03
2022-10-19T13:54:52.124Z,5.50
2022-10-19T13:57:33.466Z,5.97
2022-10-19T14:00:11.019Z,5.13
2022-10-19T14:02:45.738Z,5.80
2022-10-19T14:05:33.576Z,5.32
2022-10-19T14:08:26.442Z,5.53
2022-10-19T14:11:04.118Z,4.70
2022-10-19T14:13:31.475Z,5.13
2022-10-19T14:16:01.415Z,5.32
2022-10-19T14:18:32.671Z,5.47
2022-10-19T14:21:01.962Z,5.18
2022-10-19T14:23:31.437Z,6.13
2022-10-19T14:26:11.384Z,4.93
2022-10-19T14:28:39.247Z,4.63
2022-10-19T14:31:09.523Z,5.30
2022-10-19T14:36:07.350Z,5.95
2022-10-19T14:38:38.620Z,5.70
2022-10-19T14:41:17.407Z,4.55
2022-10-19T14:43:44.037Z,5.40
2022-10-19T14:46:13.817Z,5.35
2022-10-19T14:48:42.840Z,4.43
2022-10-19T14:51:24.408Z,7.35
2022-10-19T14:54:00.242Z,5.90
2022-10-19T14:57:05.537Z,6.50
2022-10-19T14:59:37.367Z,5.18
2022-10-19T15:02:23.006Z,4.65
2022-10-19T15:04:51.336Z,5.10
2022-10-19T15:07:35.505Z,5.72
2022-10-19T15:10:06.569Z,5.32
2022-10-19T15:12:42.378Z,4.88
2022-10-19T15:15:25.726Z,5.40
2022-10-19T15:17:55.804Z,5.22
2022-10-19T15:20:44.255Z,5.53
2022-10-19T15:23:44.768Z,5.35
2022-10-19T15:26:30.013Z,5.45
2022-10-19T15:29:09.376Z,4.55
2022-10-19T15:31:36.307Z,5.18
2022-10-19T15:34:03.836Z,5.00
2022-10-19T15:36:57.927Z,12.40
2022-10-19T15:39:38.949Z,5.90
2022-10-19T15:42:22.504Z,5.85
2022-10-19T15:44:51.415Z,5.60
2022-10-19T15:47:22.152Z,6.28
2022-10-19T15:49:53.604Z,5.30
2022-10-19T15:52:24.404Z,5.82
2022-10-19T15:54:53.965Z,5.53
2022-10-19T15:57:38.570Z,5.57
2022-10-19T16:00:16.362Z,6.50
2022-10-19T16:02:43.919Z,5.75
2022-10-19T16:05:31.721Z,6.35
2022-10-19T16:08:11.712Z,5.38
2022-10-19T16:10:39.311Z,6.55
2022-10-19T16:13:06.254Z,6.47
2022-10-19T16:15:38.523Z,5.78
2022-10-19T16:18:05.447Z,5.35
2022-10-19T16:20:32.223Z,6.10
2022-10-19T16:23:01.676Z,5.97
2022-10-19T16:25:31.901Z,6.07
2022-10-19T16:28:06.080Z,6.05
2022-10-19T16:30:37.842Z,6.53
2022-10-19T16:33:10.158Z,6.35
2022-10-19T16:35:39.184Z,6.53
2022-10-19T16:38:09.095Z,6.60
2022-10-19T16:40:47.523Z,7.82
2022-10-19T16:43:14.405Z,7.22
2022-10-19T16:45:48.157Z,7.43
2022-10-19T16:48:27.245Z,7.55
2022-10-19T16:51:30.302Z,6.57
2022-10-19T16:54:04.253Z,6.53
2022-10-19T16:56:34.900Z,9.38
2022-10-19T16:59:06.767Z,7.22
2022-10-19T17:01:35.350Z,7.25
2022-10-19T17:04:04.303Z,8.73
2022-10-19T17:06:31.264Z,11.15
2022-10-19T17:11:45.860Z,10.98
2022-10-19T17:14:13.299Z,8.13
2022-10-19T17:16:42.698Z,7.55
2022-10-19T17:19:14.012Z,6.70
2022-10-19T17:21:43.834Z,6.07
2022-10-19T17:24:22.080Z,5.97
2022-10-19T17:26:51.867Z,6.63
2022-10-19T17:29:19.726Z,7.30
2022-10-19T17:31:46.813Z,6.95
2022-10-19T17:34:16.088Z,7.03
2022-10-19T17:36:44.797Z,7.13
2022-10-19T17:39:17.493Z,7.53
2022-10-19T17:41:51.357Z,8.05
2022-10-19T17:44:23.176Z,8.98
2022-10-19T17:46:50.667Z,7.50
2022-10-19T17:49:35.512Z,7.38
2022-10-19T17:52:07.702Z,7.38
2022-10-19T17:54:43.501Z,8.27
2022-10-19T17:57:23.840Z,7.30
2022-10-19T17:59:53.024Z,7.90
2022-10-19T18:02:20.185Z,9.25
2022-10-19T18:04:46.943Z,9.32
2022-10-19T18:07:16.304Z,8.15
2022-10-19T18:09:52.255Z,9.63
2022-10-19T18:12:18.936Z,6.95
2022-10-19T18:14:45.852Z,8.50
2022-10-19T18:17:14.070Z,8.02
2022-10-19T18:19:40.806Z,8.95
2022-10-19T18:22:07.566Z,9.25
2022-10-19T18:24:35.939Z,9.05
2022-10-19T18:27:02.729Z,8.70
2022-10-19T18:29:29.599Z,8.75
2022-10-19T18:31:56.464Z,8.77
2022-10-19T18:34:26.159Z,8.15
2022-10-19T18:36:53.915Z,8.02
2022-10-19T18:39:21.160Z,7.97
2022-10-19T18:41:52.756Z,8.80
2022-10-19T18:44:25.153Z,7.93
2022-10-19T18:46:53.497Z,7.60
2022-10-19T18:49:21.280Z,7.90
2022-10-19T18:51:54.041Z,8.02
2022-10-19T18:54:25.492Z,7.53
2022-10-19T18:56:52.285Z,9.57
2022-10-19T18:59:19.186Z,9.80
2022-10-19T19:01:45.940Z,9.07
2022-10-19T19:04:12.858Z,10.43
2022-10-19T19:06:39.791Z,10.70
2022-10-19T19:09:11.356Z,10.77
2022-10-19T19:11:42.029Z,11.25
2022-10-19T19:14:17.309Z,10.68
2022-10-19T19:16:45.177Z,12.45
2022-10-19T19:19:14.442Z,10.55
2022-10-19T19:21:44.088Z,10.30
2022-10-19T19:24:15.533Z,10.30
2022-10-19T19:26:45.736Z,11.02
2022-10-19T19:29:18.772Z,9.60
2022-10-19T19:31:46.991Z,10.15
2022-10-19T19:34:14.135Z,10.85
2022-10-19T19:36:49.264Z,11.77
2022-10-19T19:39:20.506Z,8.90
2022-10-19T19:41:49.120Z,9.90
2022-10-19T19:44:19.574Z,9.85
2022-10-19T19:46:46.348Z,11.57
2022-10-19T19:49:13.500Z,11.98
2022-10-19T19:51:44.360Z,10.82
2022-10-19T19:54:11.577Z,11.50
2022-10-19T19:56:39.254Z,10.60
2022-10-19T19:59:06.048Z,10.98
2022-10-19T20:01:32.959Z,10.68
2022-10-19T20:06:31.023Z,10.00
2022-10-19T20:08:57.790Z,10.02
2022-10-19T20:11:27.142Z,9.20
2022-10-19T20:13:54.299Z,10.23
2022-10-19T20:16:26.582Z,9.43
2022-10-19T20:19:07.181Z,11.57
2022-10-19T20:21:34.328Z,9.95
2022-10-19T20:24:01.651Z,10.00
2022-10-19T20:26:28.799Z,10.20
2022-10-19T20:28:57.268Z,8.30
2022-10-19T20:31:30.493Z,10.27
2022-10-19T20:33:57.474Z,10.43
2022-10-19T20:36:25.916Z,9.88
2022-10-19T20:38:55.627Z,8.70
2022-10-19T20:41:24.172Z,9.30
2022-10-19T20:43:51.366Z,10.35
2022-10-19T20:46:22.274Z,9.60
2022-10-19T20:48:49.176Z,9.30
2022-10-19T20:51:26.014Z,9.25
2022-10-19T20:53:57.351Z,9.17
2022-10-19T20:56:30.320Z,9.93
2022-10-19T20:58:57.875Z,10.05
2022-10-19T21:01:29.211Z,9.87
2022-10-19T21:03:57.876Z,9.38
2022-10-19T21:06:26.590Z,9.57
2022-10-19T21:08:56.863Z,9.23
2022-10-19T21:11:31.433Z,9.70
2022-10-19T21:14:04.396Z,9.18
2022-10-19T21:16:34.078Z,8.73
2022-10-19T21:19:02.573Z,8.88
2022-10-19T21:21:35.152Z,9.60
2022-10-19T21:24:11.071Z,11.65
2022-10-19T21:26:38.316Z,9.75
2022-10-19T21:29:09.358Z,9.77
2022-10-19T21:31:39.547Z,9.45
2022-10-19T21:34:07.924Z,9.55
2022-10-19T21:36:36.262Z,9.40
2022-10-19T21:39:03.413Z,8.82
2022-10-19T21:41:31.081Z,9.10
2022-10-19T21:43:58.352Z,8.73
2022-10-19T21:46:25.933Z,7.97
2022-10-19T21:48:54.514Z,7.75
2022-10-19T21:51:40.768Z,8.38
2022-10-19T21:56:38.854Z,7.55
2022-10-19T21:59:05.666Z,8.70
2022-10-19T22:01:38.721Z,7.80
2022-10-19T22:04:12.361Z,8.15
2022-10-19T22:06:39.986Z,7.40
2022-10-19T22:09:12.350Z,7.20
2022-10-19T22:11:40.732Z,7.32
2022-10-19T22:14:07.495Z,7.10
2022-10-19T22:16:37.086Z,7.00
2022-10-19T22:19:08.189Z,7.50
2022-10-19T22:21:35.629Z,6.40
2022-10-19T22:24:08.936Z,7.50
2022-10-19T22:26:42.537Z,8.50
2022-10-19T22:29:09.578Z,7.05
2022-10-19T22:31:37.058Z,7.15
2022-10-19T22:34:07.613Z,6.95
2022-10-19T22:36:38.097Z,7.53
2022-10-19T22:39:05.860Z,6.30
2022-10-19T22:41:32.640Z,6.22
2022-10-19T22:43:59.445Z,7.00
2022-10-19T22:46:26.088Z,6.65
2022-10-19T22:48:53.037Z,6.95
2022-10-19T22:51:19.814Z,6.93
2022-10-19T22:53:46.643Z,6.93
2022-10-19T22:56:13.667Z,6.15
2022-10-19T22:58:41.629Z,7.35
2022-10-19T23:01:11.010Z,7.10
2022-10-19T23:03:41.694Z,6.38
2022-10-19T23:08:35.941Z,6.18
2022-10-19T23:11:07.918Z,5.88
2022-10-19T23:13:34.808Z,6.45
2022-10-19T23:16:02.320Z,6.90
2022-10-19T23:18:33.464Z,6.60
2022-10-19T23:21:02.077Z,6.35
2022-10-19T23:23:30.441Z,5.85
2022-10-19T23:26:10.328Z,5.75
2022-10-19T23:28:39.372Z,6.57
2022-10-19T23:31:19.531Z,6.00
2022-10-19T23:33:48.321Z,6.18
2022-10-19T23:36:18.191Z,6.22
2022-10-19T23:38:47.023Z,6.90
2022-10-19T23:41:14.366Z,6.53
2022-10-19T23:43:41.464Z,6.15
2022-10-19T23:46:11.760Z,7.25
2022-10-19T23:48:38.858Z,6.65
2022-10-19T23:51:11.611Z,6.80
2022-10-19T23:53:41.616Z,6.65
2022-10-19T23:56:29.422Z,6.10
2022-10-19T23:58:58.851Z,6.03
